sensor_id;sensor_type;location;lat;lon;timestamp;pressure;altitude;pressure_sealevel;temperature;humidity
46768;BME280;69007;48.978;18.066;2024-03-25T00:01:30;96366.22;;;5.56;100.00
46768;BME280;69007;48.978;18.066;2024-03-25T00:03:55;96368.38;;;5.59;100.00
46768;BME280;69007;48.978;18.066;2024-03-25T00:06:21;96357.03;;;5.57;100.00
46768;BME280;69007;48.978;18.066;2024-03-25T00:08:46;96331.84;;;5.26;100.00
46768;BME280;69007;48.978;18.066;2024-03-25T00:11:12;96369.19;;;5.49;100.00
46768;BME280;69007;48.978;18.066;2024-03-25T00:13:37;96368.06;;;5.45;100.00
46768;BME280;69007;48.978;18.066;2024-03-25T00:16:03;96361.38;;;5.53;100.00
46768;BME280;69007;48.978;18.066;2024-03-25T00:18:30;96365.66;;;5.54;100.00
46768;BME280;69007;48.978;18.066;2024-03-25T00:20:56;96365.13;;;5.57;100.00
46768;BME280;69007;48.978;18.066;2024-03-25T00:23:22;96367.81;;;5.52;99.44
46768;BME280;69007;48.978;18.066;2024-03-25T00:25:47;96364.31;;;5.51;100.00
46768;BME280;69007;48.978;18.066;2024-03-25T00:28:12;96324.59;;;5.31;98.97
46768;BME280;69007;48.978;18.066;2024-03-25T00:30:38;96355.81;;;5.22;100.00
46768;BME280;69007;48.978;18.066;2024-03-25T00:33:03;96308.50;;;4.94;100.00
46768;BME280;69007;48.978;18.066;2024-03-25T00:35:29;96354.16;;;5.11;100.00
46768;BME280;69007;48.978;18.066;2024-03-25T00:37:54;96347.44;;;5.19;98.74
46768;BME280;69007;48.978;18.066;2024-03-25T00:40:19;96341.78;;;5.15;99.34
46768;BME280;69007;48.978;18.066;2024-03-25T00:42:45;96347.97;;;5.15;99.26
46768;BME280;69007;48.978;18.066;2024-03-25T00:45:11;96347.97;;;5.15;100.00
46768;BME280;69007;48.978;18.066;2024-03-25T00:47:37;96326.03;;;4.96;100.00
46768;BME280;69007;48.978;18.066;2024-03-25T00:50:02;96340.66;;;5.11;100.00
46768;BME280;69007;48.978;18.066;2024-03-25T00:52:28;96337.44;;;5.09;100.00
46768;BME280;69007;48.978;18.066;2024-03-25T00:54:53;96334.72;;;5.09;100.00
46768;BME280;69007;48.978;18.066;2024-03-25T00:57:19;96333.06;;;5.03;100.00
46768;BME280;69007;48.978;18.066;2024-03-25T00:59:44;96330.13;;;5.04;100.00
46768;BME280;69007;48.978;18.066;2024-03-25T01:02:10;96337.97;;;5.11;100.00
46768;BME280;69007;48.978;18.066;2024-03-25T01:04:35;96329.09;;;5.15;100.00
46768;BME280;69007;48.978;18.066;2024-03-25T01:07:02;96286.66;;;4.90;100.00
46768;BME280;69007;48.978;18.066;2024-03-25T01:09:28;96349.38;;;5.23;100.00
46768;BME280;69007;48.978;18.066;2024-03-25T01:11:55;96332.09;;;5.24;100.00
46768;BME280;69007;48.978;18.066;2024-03-25T01:14:20;96329.69;;;5.28;100.00
46768;BME280;69007;48.978;18.066;2024-03-25T01:16:46;96334.53;;;5.31;100.00
46768;BME280;69007;48.978;18.066;2024-03-25T01:19:11;96332.66;;;5.26;100.00
46768;BME280;69007;48.978;18.066;2024-03-25T01:21:36;96333.22;;;5.33;100.00
46768;BME280;69007;48.978;18.066;2024-03-25T01:24:02;96328.63;;;5.34;100.00
46768;BME280;69007;48.978;18.066;2024-03-25T01:26:27;96300.97;;;5.01;100.00
46768;BME280;69007;48.978;18.066;2024-03-25T01:28:53;96326.38;;;5.10;100.00
46768;BME280;69007;48.978;18.066;2024-03-25T01:31:19;96321.81;;;5.16;100.00
46768;BME280;69007;48.978;18.066;2024-03-25T01:33:44;96333.19;;;5.23;100.00
46768;BME280;69007;48.978;18.066;2024-03-25T01:36:10;96334.28;;;5.27;100.00
46768;BME280;69007;48.978;18.066;2024-03-25T01:38:39;96294.03;;;5.10;99.39
46768;BME280;69007;48.978;18.066;2024-03-25T01:41:09;96321.00;;;5.15;99.78
46768;BME280;69007;48.978;18.066;2024-03-25T01:43:35;96330.47;;;5.18;100.00
46768;BME280;69007;48.978;18.066;2024-03-25T01:46:01;96324.53;;;5.21;99.86
46768;BME280;69007;48.978;18.066;2024-03-25T01:48:27;96311.03;;;5.16;100.00
46768;BME280;69007;48.978;18.066;2024-03-25T01:50:53;96286.13;;;4.93;100.00
46768;BME280;69007;48.978;18.066;2024-03-25T01:53:20;96317.41;;;4.99;100.00
46768;BME280;69007;48.978;18.066;2024-03-25T01:55:46;96304.16;;;4.93;100.00
46768;BME280;69007;48.978;18.066;2024-03-25T01:58:13;96322.31;;;5.08;100.00
46768;BME280;69007;48.978;18.066;2024-03-25T02:00:39;96329.09;;;5.15;100.00
46768;BME280;69007;48.978;18.066;2024-03-25T02:03:05;96321.56;;;5.23;100.00
46768;BME280;69007;48.978;18.066;2024-03-25T02:05:31;96313.44;;;5.12;100.00
46768;BME280;69007;48.978;18.066;2024-03-25T02:07:57;96319.09;;;5.16;100.00
46768;BME280;69007;48.978;18.066;2024-03-25T02:10:24;96315.63;;;5.21;100.00
46768;BME280;69007;48.978;18.066;2024-03-25T02:12:50;96320.75;;;5.22;100.00
46768;BME280;69007;48.978;18.066;2024-03-25T02:15:17;96331.31;;;5.29;100.00
46768;BME280;69007;48.978;18.066;2024-03-25T02:17:43;96301.06;;;5.16;100.00
46768;BME280;69007;48.978;18.066;2024-03-25T02:20:09;96325.13;;;5.28;100.00
46768;BME280;69007;48.978;18.066;2024-03-25T02:22:36;96324.88;;;5.35;100.00
46768;BME280;69007;48.978;18.066;2024-03-25T02:25:07;96322.72;;;5.37;100.00
46768;BME280;69007;48.978;18.066;2024-03-25T02:27:39;96333.25;;;5.39;100.00
46768;BME280;69007;48.978;18.066;2024-03-25T02:30:08;96325.66;;;5.35;100.00
46768;BME280;69007;48.978;18.066;2024-03-25T02:32:35;96294.81;;;5.06;100.00
46768;BME280;69007;48.978;18.066;2024-03-25T02:35:02;96281.00;;;4.92;100.00
46768;BME280;69007;48.978;18.066;2024-03-25T02:37:29;96323.41;;;5.12;100.00
46768;BME280;69007;48.978;18.066;2024-03-25T02:39:57;96293.94;;;4.95;100.00
46768;BME280;69007;48.978;18.066;2024-03-25T02:42:24;96331.00;;;5.15;100.00
46768;BME280;69007;48.978;18.066;2024-03-25T02:44:50;96314.56;;;5.16;100.00
46768;BME280;69007;48.978;18.066;2024-03-25T02:47:15;96299.13;;;5.02;100.00
46768;BME280;69007;48.978;18.066;2024-03-25T02:49:42;96328.03;;;5.16;100.00
46768;BME280;69007;48.978;18.066;2024-03-25T02:52:08;96323.19;;;5.24;100.00
46768;BME280;69007;48.978;18.066;2024-03-25T02:54:33;96327.03;;;5.33;100.00
46768;BME280;69007;48.978;18.066;2024-03-25T02:56:59;96324.84;;;5.25;100.00
46768;BME280;69007;48.978;18.066;2024-03-25T02:59:24;96309.41;;;5.10;100.00
46768;BME280;69007;48.978;18.066;2024-03-25T03:01:49;96280.44;;;4.90;100.00
46768;BME280;69007;48.978;18.066;2024-03-25T03:04:15;96318.56;;;5.14;100.00
46768;BME280;69007;48.978;18.066;2024-03-25T03:06:40;96312.38;;;5.13;100.00
46768;BME280;69007;48.978;18.066;2024-03-25T03:09:06;96274.53;;;4.93;100.00
46768;BME280;69007;48.978;18.066;2024-03-25T03:11:32;96308.91;;;5.18;100.00
46768;BME280;69007;48.978;18.066;2024-03-25T03:13:57;96315.88;;;5.19;100.00
46768;BME280;69007;48.978;18.066;2024-03-25T03:16:22;96284.50;;;4.92;100.00
46768;BME280;69007;48.978;18.066;2024-03-25T03:18:48;96296.69;;;5.00;100.00
46768;BME280;69007;48.978;18.066;2024-03-25T03:21:13;96320.19;;;5.15;100.00
46768;BME280;69007;48.978;18.066;2024-03-25T03:23:38;96326.69;;;5.19;100.00
46768;BME280;69007;48.978;18.066;2024-03-25T03:26:04;96334.25;;;5.22;100.00
46768;BME280;69007;48.978;18.066;2024-03-25T03:28:29;96302.63;;;5.07;100.00
46768;BME280;69007;48.978;18.066;2024-03-25T03:30:54;96301.25;;;4.99;100.00
46768;BME280;69007;48.978;18.066;2024-03-25T03:33:20;96329.91;;;5.21;100.00
46768;BME280;69007;48.978;18.066;2024-03-25T03:35:46;96323.13;;;5.08;100.00
46768;BME280;69007;48.978;18.066;2024-03-25T03:38:11;96302.59;;;4.97;100.00
46768;BME280;69007;48.978;18.066;2024-03-25T03:40:37;96301.75;;;4.96;100.00
46768;BME280;69007;48.978;18.066;2024-03-25T03:43:02;96302.91;;;5.06;100.00
46768;BME280;69007;48.978;18.066;2024-03-25T03:45:33;96329.41;;;5.24;100.00
46768;BME280;69007;48.978;18.066;2024-03-25T03:47:58;96308.00;;;5.02;100.00
46768;BME280;69007;48.978;18.066;2024-03-25T03:50:23;96312.13;;;5.15;100.00
46768;BME280;69007;48.978;18.066;2024-03-25T03:52:49;96288.84;;;4.98;100.00
46768;BME280;69007;48.978;18.066;2024-03-25T03:55:14;96291.44;;;4.83;100.00
46768;BME280;69007;48.978;18.066;2024-03-25T03:57:39;96303.09;;;4.89;100.00
46768;BME280;69007;48.978;18.066;2024-03-25T04:00:08;96340.88;;;4.99;100.00
46768;BME280;69007;48.978;18.066;2024-03-25T04:02:34;96343.84;;;5.03;100.00
46768;BME280;69007;48.978;18.066;2024-03-25T04:04:59;96338.50;;;5.13;100.00
46768;BME280;69007;48.978;18.066;2024-03-25T04:07:24;96336.91;;;5.12;100.00
46768;BME280;69007;48.978;18.066;2024-03-25T04:09:53;96320.09;;;4.99;100.00
46768;BME280;69007;48.978;18.066;2024-03-25T04:12:19;96314.41;;;4.91;100.00
46768;BME280;69007;48.978;18.066;2024-03-25T04:14:46;96347.41;;;5.08;100.00
46768;BME280;69007;48.978;18.066;2024-03-25T04:17:12;96353.59;;;5.09;100.00
46768;BME280;69007;48.978;18.066;2024-03-25T04:19:37;96335.47;;;4.99;100.00
46768;BME280;69007;48.978;18.066;2024-03-25T04:22:03;96346.78;;;4.96;100.00
46768;BME280;69007;48.978;18.066;2024-03-25T04:24:28;96355.66;;;4.96;100.00
46768;BME280;69007;48.978;18.066;2024-03-25T04:26:53;96311.94;;;4.79;100.00
46768;BME280;69007;48.978;18.066;2024-03-25T04:29:19;96315.19;;;4.86;100.00
46768;BME280;69007;48.978;18.066;2024-03-25T04:31:45;96334.47;;;5.10;100.00
46768;BME280;69007;48.978;18.066;2024-03-25T04:34:10;96337.97;;;5.11;100.00
46768;BME280;69007;48.978;18.066;2024-03-25T04:36:36;96320.09;;;4.94;100.00
46768;BME280;69007;48.978;18.066;2024-03-25T04:39:01;96313.59;;;4.85;100.00
46768;BME280;69007;48.978;18.066;2024-03-25T04:41:27;96344.13;;;5.01;100.00
46768;BME280;69007;48.978;18.066;2024-03-25T04:43:52;96341.13;;;4.97;100.00
46768;BME280;69007;48.978;18.066;2024-03-25T04:46:18;96313.50;;;4.75;100.00
46768;BME280;69007;48.978;18.066;2024-03-25T04:48:43;96350.84;;;4.93;100.00
46768;BME280;69007;48.978;18.066;2024-03-25T04:51:08;96323.00;;;4.88;100.00
46768;BME280;69007;48.978;18.066;2024-03-25T04:53:35;96348.44;;;5.02;100.00
46768;BME280;69007;48.978;18.066;2024-03-25T04:56:00;96345.22;;;5.05;100.00
46768;BME280;69007;48.978;18.066;2024-03-25T04:58:25;96343.59;;;5.04;100.00
46768;BME280;69007;48.978;18.066;2024-03-25T05:00:51;96322.25;;;4.92;100.00
46768;BME280;69007;48.978;18.066;2024-03-25T05:03:16;96319.53;;;4.87;100.00
46768;BME280;69007;48.978;18.066;2024-03-25T05:05:41;96352.25;;;5.11;100.00
46768;BME280;69007;48.978;18.066;2024-03-25T05:08:07;96326.88;;;5.02;100.00
46768;BME280;69007;48.978;18.066;2024-03-25T05:10:33;96348.28;;;5.24;100.00
46768;BME280;69007;48.978;18.066;2024-03-25T05:12:58;96359.63;;;5.26;100.00
46768;BME280;69007;48.978;18.066;2024-03-25T05:15:23;96336.91;;;5.12;100.00
46768;BME280;69007;48.978;18.066;2024-03-25T05:17:49;96367.72;;;5.26;100.00
46768;BME280;69007;48.978;18.066;2024-03-25T05:20:14;96351.72;;;5.14;100.00
46768;BME280;69007;48.978;18.066;2024-03-25T05:22:39;96334.75;;;5.14;100.00
46768;BME280;69007;48.978;18.066;2024-03-25T05:25:05;96346.66;;;5.18;100.00
46768;BME280;69007;48.978;18.066;2024-03-25T05:27:30;96351.53;;;5.26;100.00
46768;BME280;69007;48.978;18.066;2024-03-25T05:29:56;96349.09;;;5.25;100.00
46768;BME280;69007;48.978;18.066;2024-03-25T05:32:22;96369.88;;;5.29;100.00
46768;BME280;69007;48.978;18.066;2024-03-25T05:34:48;96353.06;;;5.07;100.00
46768;BME280;69007;48.978;18.066;2024-03-25T05:37:14;96377.13;;;5.24;100.00
46768;BME280;69007;48.978;18.066;2024-03-25T05:39:39;96385.78;;;5.26;100.00
46768;BME280;69007;48.978;18.066;2024-03-25T05:42:05;96371.19;;;5.22;100.00
46768;BME280;69007;48.978;18.066;2024-03-25T05:44:30;96394.66;;;5.21;100.00
46768;BME280;69007;48.978;18.066;2024-03-25T05:46:56;96389.81;;;5.23;100.00
46768;BME280;69007;48.978;18.066;2024-03-25T05:49:21;96363.28;;;5.05;100.00
46768;BME280;69007;48.978;18.066;2024-03-25T05:51:47;96394.34;;;5.12;100.00
46768;BME280;69007;48.978;18.066;2024-03-25T05:54:13;96403.22;;;5.13;100.00
46768;BME280;69007;48.978;18.066;2024-03-25T05:56:38;96395.72;;;5.20;100.00
46768;BME280;69007;48.978;18.066;2024-03-25T05:59:04;96375.53;;;5.28;100.00
46768;BME280;69007;48.978;18.066;2024-03-25T06:01:29;96391.56;;;5.50;100.00
46768;BME280;69007;48.978;18.066;2024-03-25T06:03:54;96400.50;;;5.61;100.00
46768;BME280;69007;48.978;18.066;2024-03-25T06:06:20;96404.84;;;5.67;100.00
46768;BME280;69007;48.978;18.066;2024-03-25T06:08:45;96403.00;;;5.72;100.00
46768;BME280;69007;48.978;18.066;2024-03-25T06:11:11;96398.38;;;5.68;100.00
46768;BME280;69007;48.978;18.066;2024-03-25T06:13:36;96397.88;;;5.71;100.00
46768;BME280;69007;48.978;18.066;2024-03-25T06:16:01;96406.00;;;5.81;100.00
46768;BME280;69007;48.978;18.066;2024-03-25T06:18:27;96384.38;;;5.76;99.60
46768;BME280;69007;48.978;18.066;2024-03-25T06:20:52;96408.50;;;5.98;99.80
46768;BME280;69007;48.978;18.066;2024-03-25T06:23:28;96380.97;;;6.06;97.10
46768;BME280;69007;48.978;18.066;2024-03-25T06:25:55;96393.16;;;6.24;96.50
46768;BME280;69007;48.978;18.066;2024-03-25T06:28:21;96395.06;;;6.44;96.07
46768;BME280;69007;48.978;18.066;2024-03-25T06:30:47;96411.31;;;6.75;94.56
46768;BME280;69007;48.978;18.066;2024-03-25T06:33:33;96412.66;;;6.83;95.76
46768;BME280;69007;48.978;18.066;2024-03-25T06:36:17;96384.00;;;6.72;92.74
46768;BME280;69007;48.978;18.066;2024-03-25T06:38:43;96409.94;;;6.68;94.20
46768;BME280;69007;48.978;18.066;2024-03-25T06:41:09;96380.19;;;6.32;96.27
46768;BME280;69007;48.978;18.066;2024-03-25T06:43:36;96414.22;;;6.22;96.78
46768;BME280;69007;48.978;18.066;2024-03-25T06:46:01;96402.56;;;6.01;97.45
46768;BME280;69007;48.978;18.066;2024-03-25T06:48:27;96397.91;;;5.91;97.76
46768;BME280;69007;48.978;18.066;2024-03-25T06:50:54;96398.19;;;5.95;99.60
46768;BME280;69007;48.978;18.066;2024-03-25T06:53:20;96430.38;;;6.07;98.78
46768;BME280;69007;48.978;18.066;2024-03-25T06:55:56;96449.56;;;6.05;100.00
46768;BME280;69007;48.978;18.066;2024-03-25T06:58:23;96411.13;;;5.88;100.00
46768;BME280;69007;48.978;18.066;2024-03-25T07:00:49;96420.63;;;5.96;99.49
46768;BME280;69007;48.978;18.066;2024-03-25T07:03:18;96432.56;;;6.15;99.72
46768;BME280;69007;48.978;18.066;2024-03-25T07:05:48;96445.28;;;6.25;97.38
46768;BME280;69007;48.978;18.066;2024-03-25T07:08:14;96409.63;;;6.13;98.35
46768;BME280;69007;48.978;18.066;2024-03-25T07:10:43;96442.38;;;6.62;96.45
46768;BME280;69007;48.978;18.066;2024-03-25T07:13:08;96412.38;;;6.54;95.61
46768;BME280;69007;48.978;18.066;2024-03-25T07:15:34;96440.78;;;6.67;96.12
46768;BME280;69007;48.978;18.066;2024-03-25T07:18:00;96436.97;;;6.57;95.36
46768;BME280;69007;48.978;18.066;2024-03-25T07:20:26;96445.09;;;6.57;95.56
46768;BME280;69007;48.978;18.066;2024-03-25T07:22:52;96441.28;;;6.53;95.80
46768;BME280;69007;48.978;18.066;2024-03-25T07:25:20;96452.94;;;6.64;95.19
46768;BME280;69007;48.978;18.066;2024-03-25T07:27:46;96449.97;;;6.60;95.13
46768;BME280;69007;48.978;18.066;2024-03-25T07:30:11;96447.25;;;6.55;93.93
46768;BME280;69007;48.978;18.066;2024-03-25T07:32:37;96446.97;;;6.52;96.70
46768;BME280;69007;48.978;18.066;2024-03-25T07:35:02;96434.50;;;6.30;97.96
46768;BME280;69007;48.978;18.066;2024-03-25T07:37:30;96462.06;;;6.32;96.73
46768;BME280;69007;48.978;18.066;2024-03-25T07:39:55;96451.81;;;6.34;95.69
46768;BME280;69007;48.978;18.066;2024-03-25T07:42:21;96453.91;;;6.22;97.58
46768;BME280;69007;48.978;18.066;2024-03-25T07:44:46;96455.81;;;6.26;99.44
46768;BME280;69007;48.978;18.066;2024-03-25T07:47:11;96463.91;;;6.21;98.44
46768;BME280;69007;48.978;18.066;2024-03-25T07:49:37;96479.81;;;6.07;99.98
46768;BME280;69007;48.978;18.066;2024-03-25T07:52:03;96441.88;;;5.82;100.00
46768;BME280;69007;48.978;18.066;2024-03-25T07:54:28;96451.03;;;5.76;100.00
46768;BME280;69007;48.978;18.066;2024-03-25T07:56:54;96470.78;;;5.81;100.00
46768;BME280;69007;48.978;18.066;2024-03-25T07:59:19;96485.66;;;5.89;100.00
46768;BME280;69007;48.978;18.066;2024-03-25T08:01:44;96462.97;;;5.90;100.00
46768;BME280;69007;48.978;18.066;2024-03-25T08:04:10;96481.44;;;6.08;100.00
46768;BME280;69007;48.978;18.066;2024-03-25T08:06:35;96461.31;;;5.84;100.00
46768;BME280;69007;48.978;18.066;2024-03-25T08:09:01;96483.06;;;6.04;100.00
46768;BME280;69007;48.978;18.066;2024-03-25T08:11:28;96497.56;;;5.93;100.00
46768;BME280;69007;48.978;18.066;2024-03-25T08:13:53;96500.75;;;5.85;100.00
46768;BME280;69007;48.978;18.066;2024-03-25T08:16:19;96495.38;;;5.90;100.00
46768;BME280;69007;48.978;18.066;2024-03-25T08:18:45;96460.25;;;5.80;100.00
46768;BME280;69007;48.978;18.066;2024-03-25T08:21:10;96487.91;;;6.02;100.00
46768;BME280;69007;48.978;18.066;2024-03-25T08:23:35;96484.41;;;6.07;100.00
46768;BME280;69007;48.978;18.066;2024-03-25T08:26:01;96499.56;;;6.18;100.00
46768;BME280;69007;48.978;18.066;2024-03-25T08:28:27;96495.84;;;6.40;100.00
46768;BME280;69007;48.978;18.066;2024-03-25T08:30:52;96458.59;;;6.47;100.00
46768;BME280;69007;48.978;18.066;2024-03-25T08:33:18;96493.50;;;7.00;100.00
46768;BME280;69007;48.978;18.066;2024-03-25T08:35:43;96487.03;;;7.11;100.00
46768;BME280;69007;48.978;18.066;2024-03-25T08:38:08;96504.88;;;7.28;99.41
46768;BME280;69007;48.978;18.066;2024-03-25T08:40:33;96499.44;;;7.38;98.05
46768;BME280;69007;48.978;18.066;2024-03-25T08:42:59;96503.25;;;7.27;99.76
46768;BME280;69007;48.978;18.066;2024-03-25T08:45:24;96514.88;;;7.43;100.00
46768;BME280;69007;48.978;18.066;2024-03-25T08:47:50;96509.72;;;7.20;100.00
46768;BME280;69007;48.978;18.066;2024-03-25T08:50:15;96493.78;;;7.14;100.00
46768;BME280;69007;48.978;18.066;2024-03-25T08:52:40;96490.50;;;7.32;100.00
46768;BME280;69007;48.978;18.066;2024-03-25T08:55:06;96519.69;;;7.71;99.55
46768;BME280;69007;48.978;18.066;2024-03-25T08:57:31;96532.31;;;8.02;98.28
46768;BME280;69007;48.978;18.066;2024-03-25T08:59:57;96501.66;;;8.22;96.47
46768;BME280;69007;48.978;18.066;2024-03-25T09:02:22;96499.72;;;8.27;92.97
46768;BME280;69007;48.978;18.066;2024-03-25T09:04:47;96531.44;;;8.27;93.85
46768;BME280;69007;48.978;18.066;2024-03-25T09:07:16;96502.25;;;8.08;96.40
46768;BME280;69007;48.978;18.066;2024-03-25T09:09:41;96488.69;;;8.14;95.18
46768;BME280;69007;48.978;18.066;2024-03-25T09:12:25;96504.91;;;8.24;94.22
46768;BME280;69007;48.978;18.066;2024-03-25T09:14:51;96525.16;;;8.37;93.59
46768;BME280;69007;48.978;18.066;2024-03-25T09:17:16;96526.38;;;8.00;92.58
46768;BME280;69007;48.978;18.066;2024-03-25T09:19:42;96520.50;;;7.82;92.29
46768;BME280;69007;48.978;18.066;2024-03-25T09:22:08;96529.41;;;7.83;92.99
46768;BME280;69007;48.978;18.066;2024-03-25T09:24:33;96536.47;;;7.68;95.49
46768;BME280;69007;48.978;18.066;2024-03-25T09:26:59;96536.19;;;7.75;95.84
46768;BME280;69007;48.978;18.066;2024-03-25T09:29:24;96536.44;;;7.79;96.10
46768;BME280;69007;48.978;18.066;2024-03-25T09:31:50;96531.84;;;7.84;93.70
46768;BME280;69007;48.978;18.066;2024-03-25T09:34:15;96511.06;;;7.59;92.85
46768;BME280;69007;48.978;18.066;2024-03-25T09:36:41;96530.03;;;7.54;93.04
46768;BME280;69007;48.978;18.066;2024-03-25T09:39:06;96541.94;;;7.48;94.05
46768;BME280;69007;48.978;18.066;2024-03-25T09:41:35;96538.97;;;7.44;94.35
46768;BME280;69007;48.978;18.066;2024-03-25T09:44:01;96532.66;;;7.80;97.06
46768;BME280;69007;48.978;18.066;2024-03-25T09:46:30;96531.63;;;8.51;94.17
46768;BME280;69007;48.978;18.066;2024-03-25T09:48:56;96505.31;;;8.96;91.79
46768;BME280;69007;48.978;18.066;2024-03-25T09:51:21;96525.06;;;9.36;84.55
46768;BME280;69007;48.978;18.066;2024-03-25T09:53:47;96507.75;;;9.32;86.04
46768;BME280;69007;48.978;18.066;2024-03-25T09:56:13;96532.69;;;9.93;85.75
46768;BME280;69007;48.978;18.066;2024-03-25T09:58:39;96523.44;;;10.42;83.30
46768;BME280;69007;48.978;18.066;2024-03-25T10:01:05;96534.25;;;10.91;82.28
46768;BME280;69007;48.978;18.066;2024-03-25T10:03:30;96512.38;;;10.96;80.44
46768;BME280;69007;48.978;18.066;2024-03-25T10:05:55;96526.06;;;11.10;78.14
46768;BME280;69007;48.978;18.066;2024-03-25T10:08:21;96505.97;;;10.86;80.63
46768;BME280;69007;48.978;18.066;2024-03-25T10:10:47;96464.81;;;10.55;78.52
46768;BME280;69007;48.978;18.066;2024-03-25T10:13:12;96523.13;;;10.68;77.56
46768;BME280;69007;48.978;18.066;2024-03-25T10:15:37;96511.25;;;10.40;78.38
46768;BME280;69007;48.978;18.066;2024-03-25T10:18:03;96525.00;;;10.00;79.67
46768;BME280;69007;48.978;18.066;2024-03-25T10:20:28;96531.22;;;9.76;82.93
46768;BME280;69007;48.978;18.066;2024-03-25T10:22:54;96497.97;;;9.31;83.28
46768;BME280;69007;48.978;18.066;2024-03-25T10:25:30;96528.91;;;9.30;82.77
46768;BME280;69007;48.978;18.066;2024-03-25T10:28:00;96512.97;;;9.53;86.03
46768;BME280;69007;48.978;18.066;2024-03-25T10:30:26;96533.09;;;10.05;84.58
46768;BME280;69007;48.978;18.066;2024-03-25T10:33:03;96527.16;;;10.51;85.26
46768;BME280;69007;48.978;18.066;2024-03-25T10:35:39;96514.22;;;10.81;82.27
46768;BME280;69007;48.978;18.066;2024-03-25T10:38:10;96513.56;;;10.90;80.70
46768;BME280;69007;48.978;18.066;2024-03-25T10:40:39;96488.88;;;11.19;80.95
46768;BME280;69007;48.978;18.066;2024-03-25T10:43:09;96511.28;;;11.49;77.96
46768;BME280;69007;48.978;18.066;2024-03-25T10:45:47;96474.81;;;11.31;72.71
46768;BME280;69007;48.978;18.066;2024-03-25T10:50:43;96520.25;;;11.49;74.12
46768;BME280;69007;48.978;18.066;2024-03-25T10:53:10;96492.31;;;10.73;72.52
46768;BME280;69007;48.978;18.066;2024-03-25T10:55:37;96525.81;;;10.25;75.66
46768;BME280;69007;48.978;18.066;2024-03-25T10:58:04;96530.16;;;10.02;78.46
46768;BME280;69007;48.978;18.066;2024-03-25T11:00:31;96531.59;;;9.65;78.54
46768;BME280;69007;48.978;18.066;2024-03-25T11:02:59;96521.19;;;9.13;77.85
46768;BME280;69007;48.978;18.066;2024-03-25T11:05:25;96510.28;;;8.84;78.47
46768;BME280;69007;48.978;18.066;2024-03-25T11:07:50;96497.97;;;8.57;78.68
46768;BME280;69007;48.978;18.066;2024-03-25T11:10:16;96526.66;;;8.69;80.31
46768;BME280;69007;48.978;18.066;2024-03-25T11:12:41;96529.91;;;8.65;80.70
46768;BME280;69007;48.978;18.066;2024-03-25T11:15:08;96536.84;;;8.87;80.41
46768;BME280;69007;48.978;18.066;2024-03-25T11:17:34;96525.47;;;8.85;80.20
46768;BME280;69007;48.978;18.066;2024-03-25T11:20:10;96534.97;;;8.88;79.08
46768;BME280;69007;48.978;18.066;2024-03-25T11:22:36;96529.22;;;8.94;80.43
46768;BME280;69007;48.978;18.066;2024-03-25T11:25:13;96540.44;;;9.17;78.09
46768;BME280;69007;48.978;18.066;2024-03-25T11:27:38;96535.94;;;9.36;76.16
46768;BME280;69007;48.978;18.066;2024-03-25T11:30:04;96539.72;;;9.40;74.91
46768;BME280;69007;48.978;18.066;2024-03-25T11:32:43;96559.53;;;9.01;78.22
46768;BME280;69007;48.978;18.066;2024-03-25T11:35:09;96520.88;;;8.25;82.38
46768;BME280;69007;48.978;18.066;2024-03-25T11:37:39;96537.66;;;8.27;83.70
46768;BME280;69007;48.978;18.066;2024-03-25T11:40:05;96536.50;;;8.49;85.10
46768;BME280;69007;48.978;18.066;2024-03-25T11:42:32;96498.88;;;8.37;86.11
46768;BME280;69007;48.978;18.066;2024-03-25T11:44:59;96531.06;;;8.54;87.39
46768;BME280;69007;48.978;18.066;2024-03-25T11:47:25;96493.16;;;8.39;87.05
46768;BME280;69007;48.978;18.066;2024-03-25T11:49:51;96526.66;;;8.69;87.12
46768;BME280;69007;48.978;18.066;2024-03-25T11:52:16;96500.75;;;8.47;87.36
46768;BME280;69007;48.978;18.066;2024-03-25T11:54:42;96532.88;;;8.69;86.60
46768;BME280;69007;48.978;18.066;2024-03-25T11:57:08;96529.84;;;8.76;87.73
46768;BME280;69007;48.978;18.066;2024-03-25T11:59:34;96526.47;;;8.99;86.98
46768;BME280;69007;48.978;18.066;2024-03-25T12:01:59;96529.47;;;9.32;86.10
46768;BME280;69007;48.978;18.066;2024-03-25T12:04:24;96499.97;;;9.50;82.77
46768;BME280;69007;48.978;18.066;2024-03-25T12:06:54;96521.03;;;10.17;81.63
46768;BME280;69007;48.978;18.066;2024-03-25T12:09:21;96511.72;;;9.99;79.89
46768;BME280;69007;48.978;18.066;2024-03-25T12:12:06;96500.31;;;9.72;80.04
46768;BME280;69007;48.978;18.066;2024-03-25T12:14:33;96500.31;;;9.72;79.48
46768;BME280;69007;48.978;18.066;2024-03-25T12:16:58;96535.78;;;9.57;80.20
46768;BME280;69007;48.978;18.066;2024-03-25T12:19:24;96538.69;;;9.31;83.29
46768;BME280;69007;48.978;18.066;2024-03-25T12:21:50;96528.00;;;9.11;80.47
46768;BME280;69007;48.978;18.066;2024-03-25T12:24:15;96514.41;;;9.16;76.54
46768;BME280;69007;48.978;18.066;2024-03-25T12:26:41;96519.66;;;9.36;77.27
46768;BME280;69007;48.978;18.066;2024-03-25T12:29:07;96484.88;;;9.38;72.49
46768;BME280;69007;48.978;18.066;2024-03-25T12:31:32;96505.78;;;9.67;74.00
46768;BME280;69007;48.978;18.066;2024-03-25T12:33:58;96503.47;;;9.80;71.84
46768;BME280;69007;48.978;18.066;2024-03-25T12:36:23;96502.03;;;9.63;72.13
46768;BME280;69007;48.978;18.066;2024-03-25T12:38:55;96472.25;;;9.53;68.95
46768;BME280;69007;48.978;18.066;2024-03-25T12:41:24;96502.59;;;9.60;69.85
46768;BME280;69007;48.978;18.066;2024-03-25T12:43:50;96506.19;;;9.55;69.87
46768;BME280;69007;48.978;18.066;2024-03-25T12:46:16;96479.22;;;9.35;70.41
46768;BME280;69007;48.978;18.066;2024-03-25T12:48:42;96503.41;;;9.31;69.57
46768;BME280;69007;48.978;18.066;2024-03-25T12:51:17;96502.78;;;9.39;69.02
46768;BME280;69007;48.978;18.066;2024-03-25T12:53:42;96502.94;;;9.53;70.25